sensor_id;sensor_type;location;lat;lon;timestamp;temperature;humidity
21559;DHT22;10940;48.890;8.240;2023-06-10T00:02:07;18.90;99.90
21559;DHT22;10940;48.890;8.240;2023-06-10T00:04:33;18.90;99.90
21559;DHT22;10940;48.890;8.240;2023-06-10T00:06:59;18.90;99.90
21559;DHT22;10940;48.890;8.240;2023-06-10T00:09:25;18.90;99.90
21559;DHT22;10940;48.890;8.240;2023-06-10T00:11:52;18.90;99.90
21559;DHT22;10940;48.890;8.240;2023-06-10T00:14:19;18.90;99.90
21559;DHT22;10940;48.890;8.240;2023-06-10T00:16:44;18.90;99.90
21559;DHT22;10940;48.890;8.240;2023-06-10T00:19:10;18.90;99.90
21559;DHT22;10940;48.890;8.240;2023-06-10T00:21:39;18.90;99.90
21559;DHT22;10940;48.890;8.240;2023-06-10T00:24:09;18.90;99.90
21559;DHT22;10940;48.890;8.240;2023-06-10T00:26:40;18.90;99.90
21559;DHT22;10940;48.890;8.240;2023-06-10T00:29:06;18.80;99.90
21559;DHT22;10940;48.890;8.240;2023-06-10T00:31:33;18.80;99.90
21559;DHT22;10940;48.890;8.240;2023-06-10T00:33:59;18.90;99.90
21559;DHT22;10940;48.890;8.240;2023-06-10T00:36:25;18.90;99.90
21559;DHT22;10940;48.890;8.240;2023-06-10T00:38:50;18.90;99.90
21559;DHT22;10940;48.890;8.240;2023-06-10T00:41:16;18.80;99.90
21559;DHT22;10940;48.890;8.240;2023-06-10T00:43:41;18.80;99.90
21559;DHT22;10940;48.890;8.240;2023-06-10T00:46:07;18.80;99.90
21559;DHT22;10940;48.890;8.240;2023-06-10T00:48:33;18.80;99.90
21559;DHT22;10940;48.890;8.240;2023-06-10T00:50:59;18.80;99.90
21559;DHT22;10940;48.890;8.240;2023-06-10T00:53:27;18.70;99.90
21559;DHT22;10940;48.890;8.240;2023-06-10T00:55:53;18.70;99.90
21559;DHT22;10940;48.890;8.240;2023-06-10T00:58:18;18.60;99.90
21559;DHT22;10940;48.890;8.240;2023-06-10T01:00:44;18.60;99.90
21559;DHT22;10940;48.890;8.240;2023-06-10T01:03:10;18.60;99.90
21559;DHT22;10940;48.890;8.240;2023-06-10T01:05:38;18.60;99.90
21559;DHT22;10940;48.890;8.240;2023-06-10T01:08:25;18.50;99.90
21559;DHT22;10940;48.890;8.240;2023-06-10T01:11:00;18.50;99.90
21559;DHT22;10940;48.890;8.240;2023-06-10T01:13:26;18.50;99.90
21559;DHT22;10940;48.890;8.240;2023-06-10T01:15:55;18.40;99.90
21559;DHT22;10940;48.890;8.240;2023-06-10T01:18:22;18.40;99.90
21559;DHT22;10940;48.890;8.240;2023-06-10T01:20:47;18.40;99.90
21559;DHT22;10940;48.890;8.240;2023-06-10T01:23:14;18.40;99.90
21559;DHT22;10940;48.890;8.240;2023-06-10T01:25:49;18.30;99.90
21559;DHT22;10940;48.890;8.240;2023-06-10T01:28:38;18.30;99.90
21559;DHT22;10940;48.890;8.240;2023-06-10T01:31:16;18.30;99.90
21559;DHT22;10940;48.890;8.240;2023-06-10T01:33:45;18.30;99.90
21559;DHT22;10940;48.890;8.240;2023-06-10T01:36:13;18.30;99.90
21559;DHT22;10940;48.890;8.240;2023-06-10T01:38:43;18.30;99.90
21559;DHT22;10940;48.890;8.240;2023-06-10T01:41:10;18.30;99.90
21559;DHT22;10940;48.890;8.240;2023-06-10T01:43:38;18.30;99.90
21559;DHT22;10940;48.890;8.240;2023-06-10T01:46:04;18.30;99.90
21559;DHT22;10940;48.890;8.240;2023-06-10T01:48:30;18.20;99.90
21559;DHT22;10940;48.890;8.240;2023-06-10T01:50:55;18.30;99.90
21559;DHT22;10940;48.890;8.240;2023-06-10T01:53:22;18.20;99.90
21559;DHT22;10940;48.890;8.240;2023-06-10T01:55:48;18.20;99.90
21559;DHT22;10940;48.890;8.240;2023-06-10T01:58:13;18.20;99.90
21559;DHT22;10940;48.890;8.240;2023-06-10T02:00:39;18.20;99.90
21559;DHT22;10940;48.890;8.240;2023-06-10T02:03:05;18.20;99.90
21559;DHT22;10940;48.890;8.240;2023-06-10T02:05:31;18.10;99.90
21559;DHT22;10940;48.890;8.240;2023-06-10T02:07:56;18.10;99.90
21559;DHT22;10940;48.890;8.240;2023-06-10T02:10:22;18.10;99.90
21559;DHT22;10940;48.890;8.240;2023-06-10T02:12:48;18.00;99.90
21559;DHT22;10940;48.890;8.240;2023-06-10T02:15:13;18.00;99.90
21559;DHT22;10940;48.890;8.240;2023-06-10T02:17:39;18.00;99.90
21559;DHT22;10940;48.890;8.240;2023-06-10T02:20:05;17.90;99.90
21559;DHT22;10940;48.890;8.240;2023-06-10T02:22:32;17.90;99.90
21559;DHT22;10940;48.890;8.240;2023-06-10T02:24:58;17.80;99.90
21559;DHT22;10940;48.890;8.240;2023-06-10T02:27:24;17.80;99.90
21559;DHT22;10940;48.890;8.240;2023-06-10T02:29:50;17.90;99.90
21559;DHT22;10940;48.890;8.240;2023-06-10T02:32:16;17.80;99.90
21559;DHT22;10940;48.890;8.240;2023-06-10T02:34:42;17.80;99.90
21559;DHT22;10940;48.890;8.240;2023-06-10T02:37:08;17.80;99.90
21559;DHT22;10940;48.890;8.240;2023-06-10T02:39:34;17.80;99.90
21559;DHT22;10940;48.890;8.240;2023-06-10T02:42:00;17.80;99.90
21559;DHT22;10940;48.890;8.240;2023-06-10T02:44:25;17.80;99.90
21559;DHT22;10940;48.890;8.240;2023-06-10T02:46:51;17.80;99.90
21559;DHT22;10940;48.890;8.240;2023-06-10T02:49:17;17.70;99.90
21559;DHT22;10940;48.890;8.240;2023-06-10T02:51:42;17.70;99.90
21559;DHT22;10940;48.890;8.240;2023-06-10T02:54:08;17.70;99.90
21559;DHT22;10940;48.890;8.240;2023-06-10T02:56:33;17.70;99.90
21559;DHT22;10940;48.890;8.240;2023-06-10T02:59:00;17.70;99.90
21559;DHT22;10940;48.890;8.240;2023-06-10T03:01:25;17.70;99.90
21559;DHT22;10940;48.890;8.240;2023-06-10T03:03:51;17.60;99.90
21559;DHT22;10940;48.890;8.240;2023-06-10T03:06:18;17.60;99.90
21559;DHT22;10940;48.890;8.240;2023-06-10T03:08:43;17.50;99.90
21559;DHT22;10940;48.890;8.240;2023-06-10T03:11:11;17.50;99.90
21559;DHT22;10940;48.890;8.240;2023-06-10T03:13:38;17.40;99.90
21559;DHT22;10940;48.890;8.240;2023-06-10T03:16:04;17.40;99.90
21559;DHT22;10940;48.890;8.240;2023-06-10T03:18:30;17.30;99.90
21559;DHT22;10940;48.890;8.240;2023-06-10T03:20:55;17.30;99.90
21559;DHT22;10940;48.890;8.240;2023-06-10T03:23:22;17.40;99.90
21559;DHT22;10940;48.890;8.240;2023-06-10T03:25:48;17.20;99.90
21559;DHT22;10940;48.890;8.240;2023-06-10T03:28:14;17.30;99.90
21559;DHT22;10940;48.890;8.240;2023-06-10T03:30:39;17.30;99.90
21559;DHT22;10940;48.890;8.240;2023-06-10T03:33:05;17.40;99.90
21559;DHT22;10940;48.890;8.240;2023-06-10T03:35:31;17.20;99.90
21559;DHT22;10940;48.890;8.240;2023-06-10T03:37:58;17.20;99.90
21559;DHT22;10940;48.890;8.240;2023-06-10T03:40:23;17.20;99.90
21559;DHT22;10940;48.890;8.240;2023-06-10T03:42:49;17.20;99.90
21559;DHT22;10940;48.890;8.240;2023-06-10T03:45:14;17.20;99.90
21559;DHT22;10940;48.890;8.240;2023-06-10T03:47:40;17.20;99.90
21559;DHT22;10940;48.890;8.240;2023-06-10T03:50:07;17.20;99.90
21559;DHT22;10940;48.890;8.240;2023-06-10T03:52:33;17.20;99.90
21559;DHT22;10940;48.890;8.240;2023-06-10T03:54:59;17.10;99.90
21559;DHT22;10940;48.890;8.240;2023-06-10T03:57:25;17.20;99.90
21559;DHT22;10940;48.890;8.240;2023-06-10T03:59:51;17.20;99.90
21559;DHT22;10940;48.890;8.240;2023-06-10T04:02:16;17.20;99.90
21559;DHT22;10940;48.890;8.240;2023-06-10T04:04:42;17.20;99.90
21559;DHT22;10940;48.890;8.240;2023-06-10T04:07:08;17.20;99.90
21559;DHT22;10940;48.890;8.240;2023-06-10T04:09:34;17.20;99.90
21559;DHT22;10940;48.890;8.240;2023-06-10T04:12:01;17.20;99.90
21559;DHT22;10940;48.890;8.240;2023-06-10T04:14:27;17.20;99.90
21559;DHT22;10940;48.890;8.240;2023-06-10T04:16:53;17.20;99.90
21559;DHT22;10940;48.890;8.240;2023-06-10T04:19:18;17.30;99.90
21559;DHT22;10940;48.890;8.240;2023-06-10T04:21:44;17.30;99.90
21559;DHT22;10940;48.890;8.240;2023-06-10T04:24:09;17.40;99.90
21559;DHT22;10940;48.890;8.240;2023-06-10T04:26:36;17.40;99.90
21559;DHT22;10940;48.890;8.240;2023-06-10T04:29:02;17.50;99.90
21559;DHT22;10940;48.890;8.240;2023-06-10T04:31:27;17.50;99.90
21559;DHT22;10940;48.890;8.240;2023-06-10T04:33:53;17.50;99.90
21559;DHT22;10940;48.890;8.240;2023-06-10T04:36:19;17.50;99.90
21559;DHT22;10940;48.890;8.240;2023-06-10T04:38:44;17.60;99.90
21559;DHT22;10940;48.890;8.240;2023-06-10T04:41:10;17.60;99.90
21559;DHT22;10940;48.890;8.240;2023-06-10T04:43:35;17.70;99.90
21559;DHT22;10940;48.890;8.240;2023-06-10T04:46:02;17.70;99.90
21559;DHT22;10940;48.890;8.240;2023-06-10T04:48:27;17.70;99.90
21559;DHT22;10940;48.890;8.240;2023-06-10T04:50:53;17.80;99.90
21559;DHT22;10940;48.890;8.240;2023-06-10T04:53:18;17.90;99.90
21559;DHT22;10940;48.890;8.240;2023-06-10T04:55:45;18.00;99.90
21559;DHT22;10940;48.890;8.240;2023-06-10T04:58:11;18.00;99.90
21559;DHT22;10940;48.890;8.240;2023-06-10T05:00:37;18.00;99.90
21559;DHT22;10940;48.890;8.240;2023-06-10T05:03:02;18.10;99.90
21559;DHT22;10940;48.890;8.240;2023-06-10T05:05:28;18.20;99.90
21559;DHT22;10940;48.890;8.240;2023-06-10T05:07:54;18.30;99.90
21559;DHT22;10940;48.890;8.240;2023-06-10T05:10:19;18.30;99.90
21559;DHT22;10940;48.890;8.240;2023-06-10T05:12:45;18.40;99.90
21559;DHT22;10940;48.890;8.240;2023-06-10T05:15:11;18.60;99.90
21559;DHT22;10940;48.890;8.240;2023-06-10T05:17:36;18.60;99.90
21559;DHT22;10940;48.890;8.240;2023-06-10T05:20:03;18.70;99.90
21559;DHT22;10940;48.890;8.240;2023-06-10T05:22:29;18.80;99.90
21559;DHT22;10940;48.890;8.240;2023-06-10T05:24:54;18.90;99.90
21559;DHT22;10940;48.890;8.240;2023-06-10T05:27:20;18.90;99.90
21559;DHT22;10940;48.890;8.240;2023-06-10T05:29:47;19.10;99.90
21559;DHT22;10940;48.890;8.240;2023-06-10T05:32:13;19.10;99.90
21559;DHT22;10940;48.890;8.240;2023-06-10T05:34:38;19.20;99.90
21559;DHT22;10940;48.890;8.240;2023-06-10T05:37:04;19.30;99.90
21559;DHT22;10940;48.890;8.240;2023-06-10T05:39:30;19.40;99.90
21559;DHT22;10940;48.890;8.240;2023-06-10T05:41:56;19.50;99.90
21559;DHT22;10940;48.890;8.240;2023-06-10T05:44:24;19.60;99.90
21559;DHT22;10940;48.890;8.240;2023-06-10T05:46:50;19.70;99.90
21559;DHT22;10940;48.890;8.240;2023-06-10T05:49:16;19.70;99.90
21559;DHT22;10940;48.890;8.240;2023-06-10T05:51:42;19.80;99.90
21559;DHT22;10940;48.890;8.240;2023-06-10T05:54:08;19.90;99.90
21559;DHT22;10940;48.890;8.240;2023-06-10T05:56:33;20.10;99.90
21559;DHT22;10940;48.890;8.240;2023-06-10T05:58:59;20.20;99.90
21559;DHT22;10940;48.890;8.240;2023-06-10T06:01:25;20.30;99.90
21559;DHT22;10940;48.890;8.240;2023-06-10T06:03:50;20.40;99.90
21559;DHT22;10940;48.890;8.240;2023-06-10T06:06:16;20.50;99.90
21559;DHT22;10940;48.890;8.240;2023-06-10T06:08:41;20.60;99.90
21559;DHT22;10940;48.890;8.240;2023-06-10T06:11:07;20.70;99.90
21559;DHT22;10940;48.890;8.240;2023-06-10T06:13:33;20.80;99.90
21559;DHT22;10940;48.890;8.240;2023-06-10T06:15:58;20.90;99.90
21559;DHT22;10940;48.890;8.240;2023-06-10T06:18:24;21.00;99.90
21559;DHT22;10940;48.890;8.240;2023-06-10T06:20:49;21.00;99.90
21559;DHT22;10940;48.890;8.240;2023-06-10T06:23:15;21.10;99.90
21559;DHT22;10940;48.890;8.240;2023-06-10T06:25:41;21.20;99.90
21559;DHT22;10940;48.890;8.240;2023-06-10T06:28:07;21.30;99.90
21559;DHT22;10940;48.890;8.240;2023-06-10T06:30:34;21.40;99.90
21559;DHT22;10940;48.890;8.240;2023-06-10T06:33:00;21.50;99.90
21559;DHT22;10940;48.890;8.240;2023-06-10T06:35:25;21.60;99.90
21559;DHT22;10940;48.890;8.240;2023-06-10T06:37:51;21.70;99.90
21559;DHT22;10940;48.890;8.240;2023-06-10T06:40:16;21.70;99.90
21559;DHT22;10940;48.890;8.240;2023-06-10T06:42:42;21.70;99.90
21559;DHT22;10940;48.890;8.240;2023-06-10T06:45:08;21.80;99.90
21559;DHT22;10940;48.890;8.240;2023-06-10T06:47:33;21.90;99.90
21559;DHT22;10940;48.890;8.240;2023-06-10T06:49:59;22.00;99.90
21559;DHT22;10940;48.890;8.240;2023-06-10T06:52:24;22.10;99.90
21559;DHT22;10940;48.890;8.240;2023-06-10T06:54:50;22.20;99.90
21559;DHT22;10940;48.890;8.240;2023-06-10T06:57:16;22.30;99.90
21559;DHT22;10940;48.890;8.240;2023-06-10T06:59:41;22.40;99.90
21559;DHT22;10940;48.890;8.240;2023-06-10T07:02:07;22.50;99.90
21559;DHT22;10940;48.890;8.240;2023-06-10T07:04:33;22.60;99.90
21559;DHT22;10940;48.890;8.240;2023-06-10T07:06:58;22.70;99.90
21559;DHT22;10940;48.890;8.240;2023-06-10T07:09:24;22.70;99.90
21559;DHT22;10940;48.890;8.240;2023-06-10T07:11:49;22.80;99.90
21559;DHT22;10940;48.890;8.240;2023-06-10T07:14:15;22.90;99.90
21559;DHT22;10940;48.890;8.240;2023-06-10T07:16:40;23.00;99.90
21559;DHT22;10940;48.890;8.240;2023-06-10T07:19:06;23.00;99.90
21559;DHT22;10940;48.890;8.240;2023-06-10T07:21:31;23.10;99.90
21559;DHT22;10940;48.890;8.240;2023-06-10T07:23:58;23.10;99.90
21559;DHT22;10940;48.890;8.240;2023-06-10T07:26:24;23.20;99.90
21559;DHT22;10940;48.890;8.240;2023-06-10T07:28:51;23.40;99.90
21559;DHT22;10940;48.890;8.240;2023-06-10T07:31:16;23.50;99.90
21559;DHT22;10940;48.890;8.240;2023-06-10T07:33:42;23.50;99.90
21559;DHT22;10940;48.890;8.240;2023-06-10T07:36:09;23.50;99.90
21559;DHT22;10940;48.890;8.240;2023-06-10T07:38:35;23.60;99.90
21559;DHT22;10940;48.890;8.240;2023-06-10T07:41:00;23.70;99.90
21559;DHT22;10940;48.890;8.240;2023-06-10T07:43:26;23.80;99.90
21559;DHT22;10940;48.890;8.240;2023-06-10T07:45:52;23.90;99.90
21559;DHT22;10940;48.890;8.240;2023-06-10T07:48:17;23.90;99.90
21559;DHT22;10940;48.890;8.240;2023-06-10T07:50:43;24.00;99.90
21559;DHT22;10940;48.890;8.240;2023-06-10T07:53:09;23.90;99.90
21559;DHT22;10940;48.890;8.240;2023-06-10T07:55:34;24.10;99.90
21559;DHT22;10940;48.890;8.240;2023-06-10T07:58:00;24.20;99.90
21559;DHT22;10940;48.890;8.240;2023-06-10T08:00:25;24.20;99.90
21559;DHT22;10940;48.890;8.240;2023-06-10T08:02:51;24.40;99.90
21559;DHT22;10940;48.890;8.240;2023-06-10T08:05:17;24.50;99.90
21559;DHT22;10940;48.890;8.240;2023-06-10T08:07:44;24.60;99.90
21559;DHT22;10940;48.890;8.240;2023-06-10T08:10:10;24.70;99.90
21559;DHT22;10940;48.890;8.240;2023-06-10T08:12:36;24.90;99.90
21559;DHT22;10940;48.890;8.240;2023-06-10T08:15:02;24.90;99.90
21559;DHT22;10940;48.890;8.240;2023-06-10T08:17:30;25.00;99.90
21559;DHT22;10940;48.890;8.240;2023-06-10T08:19:55;25.20;99.90
21559;DHT22;10940;48.890;8.240;2023-06-10T08:22:21;25.20;99.90
21559;DHT22;10940;48.890;8.240;2023-06-10T08:24:47;25.30;99.90
21559;DHT22;10940;48.890;8.240;2023-06-10T08:27:13;25.40;99.90
21559;DHT22;10940;48.890;8.240;2023-06-10T08:29:39;25.50;99.90
21559;DHT22;10940;48.890;8.240;2023-06-10T08:32:05;25.60;99.90
21559;DHT22;10940;48.890;8.240;2023-06-10T08:34:33;25.70;99.90
21559;DHT22;10940;48.890;8.240;2023-06-10T08:37:00;25.80;99.90
21559;DHT22;10940;48.890;8.240;2023-06-10T08:39:26;25.90;99.90
21559;DHT22;10940;48.890;8.240;2023-06-10T08:44:53;26.00;99.90
21559;DHT22;10940;48.890;8.240;2023-06-10T08:47:22;26.10;99.90
21559;DHT22;10940;48.890;8.240;2023-06-10T08:49:48;26.30;99.90
21559;DHT22;10940;48.890;8.240;2023-06-10T08:52:16;26.40;99.90
21559;DHT22;10940;48.890;8.240;2023-06-10T08:57:17;26.60;99.90
21559;DHT22;10940;48.890;8.240;2023-06-10T08:59:46;26.60;99.90
21559;DHT22;10940;48.890;8.240;2023-06-10T09:02:11;26.70;99.90
21559;DHT22;10940;48.890;8.240;2023-06-10T09:04:38;26.70;99.90
21559;DHT22;10940;48.890;8.240;2023-06-10T09:07:05;26.80;99.90
21559;DHT22;10940;48.890;8.240;2023-06-10T09:09:31;26.80;99.90
21559;DHT22;10940;48.890;8.240;2023-06-10T09:11:58;26.80;99.70
21559;DHT22;10940;48.890;8.240;2023-06-10T09:14:25;26.80;98.60
21559;DHT22;10940;48.890;8.240;2023-06-10T09:16:51;27.00;98.60
21559;DHT22;10940;48.890;8.240;2023-06-10T09:19:16;27.00;97.90
21559;DHT22;10940;48.890;8.240;2023-06-10T09:21:42;27.10;98.50
21559;DHT22;10940;48.890;8.240;2023-06-10T09:24:08;27.20;98.20
21559;DHT22;10940;48.890;8.240;2023-06-10T09:26:34;27.10;97.40
21559;DHT22;10940;48.890;8.240;2023-06-10T09:29:07;27.30;97.60
21559;DHT22;10940;48.890;8.240;2023-06-10T09:31:38;27.30;97.20
21559;DHT22;10940;48.890;8.240;2023-06-10T09:34:07;27.20;97.30
21559;DHT22;10940;48.890;8.240;2023-06-10T09:36:34;27.30;97.30
21559;DHT22;10940;48.890;8.240;2023-06-10T09:39:00;27.40;97.10
21559;DHT22;10940;48.890;8.240;2023-06-10T09:41:39;27.50;97.10
21559;DHT22;10940;48.890;8.240;2023-06-10T09:44:18;27.50;96.10
21559;DHT22;10940;48.890;8.240;2023-06-10T09:46:49;27.50;98.10
21559;DHT22;10940;48.890;8.240;2023-06-10T09:49:16;27.60;96.30
21559;DHT22;10940;48.890;8.240;2023-06-10T09:51:55;27.60;96.60
21559;DHT22;10940;48.890;8.240;2023-06-10T09:54:21;27.70;96.70
21559;DHT22;10940;48.890;8.240;2023-06-10T09:56:48;27.80;95.90
21559;DHT22;10940;48.890;8.240;2023-06-10T09:59:14;27.90;95.00
21559;DHT22;10940;48.890;8.240;2023-06-10T10:01:40;27.80;95.60
21559;DHT22;10940;48.890;8.240;2023-06-10T10:04:06;27.70;95.40
21559;DHT22;10940;48.890;8.240;2023-06-10T10:06:31;27.80;95.60
21559;DHT22;10940;48.890;8.240;2023-06-10T10:08:57;28.00;94.90
21559;DHT22;10940;48.890;8.240;2023-06-10T10:11:24;28.00;94.90
21559;DHT22;10940;48.890;8.240;2023-06-10T10:13:52;28.00;95.30
21559;DHT22;10940;48.890;8.240;2023-06-10T10:16:23;28.20;94.10
21559;DHT22;10940;48.890;8.240;2023-06-10T10:18:55;28.20;94.40
21559;DHT22;10940;48.890;8.240;2023-06-10T10:21:27;28.30;93.90
21559;DHT22;10940;48.890;8.240;2023-06-10T10:24:16;28.40;94.30
21559;DHT22;10940;48.890;8.240;2023-06-10T10:26:42;28.50;93.80
21559;DHT22;10940;48.890;8.240;2023-06-10T10:29:19;28.50;94.60
21559;DHT22;10940;48.890;8.240;2023-06-10T10:31:47;28.60;94.00
21559;DHT22;10940;48.890;8.240;2023-06-10T10:34:21;28.60;93.80
21559;DHT22;10940;48.890;8.240;2023-06-10T10:36:49;28.60;93.70
21559;DHT22;10940;48.890;8.240;2023-06-10T10:39:15;28.60;93.70
21559;DHT22;10940;48.890;8.240;2023-06-10T10:41:42;28.60;93.50
21559;DHT22;10940;48.890;8.240;2023-06-10T10:44:08;28.60;94.40
21559;DHT22;10940;48.890;8.240;2023-06-10T10:46:44;28.70;93.60
21559;DHT22;10940;48.890;8.240;2023-06-10T10:49:14;28.80;92.80
21559;DHT22;10940;48.890;8.240;2023-06-10T10:51:57;28.80;93.20
21559;DHT22;10940;48.890;8.240;2023-06-10T10:54:36;28.80;94.10
21559;DHT22;10940;48.890;8.240;2023-06-10T10:57:09;28.80;93.20
21559;DHT22;10940;48.890;8.240;2023-06-10T11:02:08;29.00;92.90
21559;DHT22;10940;48.890;8.240;2023-06-10T11:04:34;29.30;92.50
21559;DHT22;10940;48.890;8.240;2023-06-10T11:07:06;29.50;91.90
21559;DHT22;10940;48.890;8.240;2023-06-10T11:09:32;29.60;91.60
21559;DHT22;10940;48.890;8.240;2023-06-10T11:11:58;29.60;91.70
21559;DHT22;10940;48.890;8.240;2023-06-10T11:14:28;29.70;92.70
21559;DHT22;10940;48.890;8.240;2023-06-10T11:16:57;29.90;92.50
21559;DHT22;10940;48.890;8.240;2023-06-10T11:19:36;30.20;91.10
21559;DHT22;10940;48.890;8.240;2023-06-10T11:22:06;30.30;91.20
21559;DHT22;10940;48.890;8.240;2023-06-10T11:24:33;30.20;90.20
21559;DHT22;10940;48.890;8.240;2023-06-10T11:27:23;30.10;91.40
21559;DHT22;10940;48.890;8.240;2023-06-10T11:30:17;30.10;91.20
21559;DHT22;10940;48.890;8.240;2023-06-10T11:32:43;30.10;91.60
21559;DHT22;10940;48.890;8.240;2023-06-10T11:35:09;30.20;91.40
21559;DHT22;10940;48.890;8.240;2023-06-10T11:37:35;30.30;91.70
21559;DHT22;10940;48.890;8.240;2023-06-10T11:40:02;30.50;90.80
21559;DHT22;10940;48.890;8.240;2023-06-10T11:42:28;30.60;90.60
21559;DHT22;10940;48.890;8.240;2023-06-10T11:44:54;30.70;88.60
21559;DHT22;10940;48.890;8.240;2023-06-10T11:47:20;30.70;91.10
21559;DHT22;10940;48.890;8.240;2023-06-10T11:49:56;30.80;91.40
21559;DHT22;10940;48.890;8.240;2023-06-10T11:52:31;31.10;92.50
21559;DHT22;10940;48.890;8.240;2023-06-10T11:54:59;31.30;91.50
21559;DHT22;10940;48.890;8.240;2023-06-10T11:57:24;31.60;92.20
21559;DHT22;10940;48.890;8.240;2023-06-10T11:59:50;31.70;90.20
21559;DHT22;10940;48.890;8.240;2023-06-10T12:02:16;31.50;91.30
21559;DHT22;10940;48.890;8.240;2023-06-10T12:04:42;31.50;90.10
21559;DHT22;10940;48.890;8.240;2023-06-10T12:07:08;31.60;87.50
21559;DHT22;10940;48.890;8.240;2023-06-10T12:09:33;31.60;88.00
21559;DHT22;10940;48.890;8.240;2023-06-10T12:12:01;31.50;85.80
21559;DHT22;10940;48.890;8.240;2023-06-10T12:14:49;31.50;88.00
21559;DHT22;10940;48.890;8.240;2023-06-10T12:17:15;31.50;88.70
21559;DHT22;10940;48.890;8.240;2023-06-10T12:19:41;31.40;90.00
21559;DHT22;10940;48.890;8.240;2023-06-10T12:22:06;31.60;90.60
21559;DHT22;10940;48.890;8.240;2023-06-10T12:24:32;31.80;90.00
21559;DHT22;10940;48.890;8.240;2023-06-10T12:26:58;32.00;86.80
21559;DHT22;10940;48.890;8.240;2023-06-10T12:29:24;31.80;88.80
21559;DHT22;10940;48.890;8.240;2023-06-10T12:32:00;31.80;89.30
21559;DHT22;10940;48.890;8.240;2023-06-10T12:36:59;32.00;88.30
21559;DHT22;10940;48.890;8.240;2023-06-10T12:39:25;32.20;87.10
21559;DHT22;10940;48.890;8.240;2023-06-10T12:41:52;32.40;85.20
21559;DHT22;10940;48.890;8.240;2023-06-10T12:44:17;32.40;85.10
21559;DHT22;10940;48.890;8.240;2023-06-10T12:46:43;32.30;84.20
21559;DHT22;10940;48.890;8.240;2023-06-10T12:49:19;32.10;87.10
21559;DHT22;10940;48.890;8.240;2023-06-10T12:51:45;32.20;86.50
21559;DHT22;10940;48.890;8.240;2023-06-10T12:54:10;32.40;87.90
21559;DHT22;10940;48.890;8.240;2023-06-10T12:56:36;32.30;85.40
21559;DHT22;10940;48.890;8.240;2023-06-10T12:59:02;32.30;85.50
21559;DHT22;10940;48.890;8.240;2023-06-10T13:01:28;32.20;87.50
21559;DHT22;10940;48.890;8.240;2023-06-10T13:03:53;32.30;84.80
21559;DHT22;10940;48.890;8.240;2023-06-10T13:06:19;32.30;84.50
21559;DHT22;10940;48.890;8.240;2023-06-10T13:08:45;32.30;85.20
21559;DHT22;10940;48.890;8.240;2023-06-10T13:11:12;31.60;86.80
21559;DHT22;10940;48.890;8.240;2023-06-10T13:13:37;31.20;87.30
21559;DHT22;10940;48.890;8.240;2023-06-10T13:16:03;31.40;89.20
21559;DHT22;10940;48.890;8.240;2023-06-10T13:18:29;31.50;86.90
21559;DHT22;10940;48.890;8.240;2023-06-10T13:20:54;31.50;86.80
21559;DHT22;10940;48.890;8.240;2023-06-10T13:23:21;31.50;85.00
21559;DHT22;10940;48.890;8.240;2023-06-10T13:25:47;31.50;88.50
21559;DHT22;10940;48.890;8.240;2023-06-10T13:28:13;31.50;87.30
21559;DHT22;10940;48.890;8.240;2023-06-10T13:30:38;31.50;86.90
21559;DHT22;10940;48.890;8.240;2023-06-10T13:33:04;31.60;86.80
21559;DHT22;10940;48.890;8.240;2023-06-10T13:35:29;31.60;86.30
21559;DHT22;10940;48.890;8.240;2023-06-10T13:37:55;31.50;86.70
21559;DHT22;10940;48.890;8.240;2023-06-10T13:40:21;31.40;84.90
21559;DHT22;10940;48.890;8.240;2023-06-10T13:42:47;31.20;86.20
21559;DHT22;10940;48.890;8.240;2023-06-10T13:45:16;31.10;85.80
21559;DHT22;10940;48.890;8.240;2023-06-10T13:47:42;31.20;85.50
21559;DHT22;10940;48.890;8.240;2023-06-10T13:50:08;31.20;86.50
21559;DHT22;10940;48.890;8.240;2023-06-10T13:52:34;31.20;85.20
21559;DHT22;10940;48.890;8.240;2023-06-10T13:54:59;31.30;85.00
21559;DHT22;10940;48.890;8.240;2023-06-10T13:57:25;31.50;85.50
21559;DHT22;10940;48.890;8.240;2023-06-10T13:59:50;31.60;84.30
21559;DHT22;10940;48.890;8.240;2023-06-10T14:02:17;31.80;86.20
21559;DHT22;10940;48.890;8.240;2023-06-10T14:04:42;32.00;84.70
21559;DHT22;10940;48.890;8.240;2023-06-10T14:07:08;32.00;81.10
21559;DHT22;10940;48.890;8.240;2023-06-10T14:09:33;31.90;82.60
21559;DHT22;10940;48.890;8.240;2023-06-10T14:11:59;31.70;83.30
21559;DHT22;10940;48.890;8.240;2023-06-10T14:14:25;31.40;84.00
21559;DHT22;10940;48.890;8.240;2023-06-10T14:16:50;31.20;84.20
21559;DHT22;10940;48.890;8.240;2023-06-10T14:19:16;31.30;85.20
21559;DHT22;10940;48.890;8.240;2023-06-10T14:21:41;31.30;82.40
21559;DHT22;10940;48.890;8.240;2023-06-10T14:24:07;31.30;82.50
21559;DHT22;10940;48.890;8.240;2023-06-10T14:26:32;31.20;83.00
21559;DHT22;10940;48.890;8.240;2023-06-10T14:28:58;31.20;83.70
21559;DHT22;10940;48.890;8.240;2023-06-10T14:31:24;31.00;82.70
21559;DHT22;10940;48.890;8.240;2023-06-10T14:33:49;30.80;82.70
21559;DHT22;10940;48.890;8.240;2023-06-10T14:36:15;30.60;82.20
21559;DHT22;10940;48.890;8.240;2023-06-10T14:38:41;30.50;82.50
21559;DHT22;10940;48.890;8.240;2023-06-10T14:41:07;30.40;85.10
21559;DHT22;10940;48.890;8.240;2023-06-10T14:43:32;30.40;84.60
21559;DHT22;10940;48.890;8.240;2023-06-10T14:45:58;30.40;84.00
21559;DHT22;10940;48.890;8.240;2023-06-10T14:48:23;30.50;84.10
21559;DHT22;10940;48.890;8.240;2023-06-10T14:50:49;30.60;82.90
21559;DHT22;10940;48.890;8.240;2023-06-10T14:53:18;30.70;85.50
21559;DHT22;10940;48.890;8.240;2023-06-10T14:55:43;30.80;83.20
21559;DHT22;10940;48.890;8.240;2023-06-10T14:58:09;31.00;84.00
21559;DHT22;10940;48.890;8.240;2023-06-10T15:00:35;31.00;83.50
21559;DHT22;10940;48.890;8.240;2023-06-10T15:03:00;30.90;82.30
21559;DHT22;10940;48.890;8.240;2023-06-10T15:05:26;30.70;82.00
21559;DHT22;10940;48.890;8.240;2023-06-10T15:07:52;30.50;80.80
21559;DHT22;10940;48.890;8.240;2023-06-10T15:10:18;30.30;82.50
21559;DHT22;10940;48.890;8.240;2023-06-10T15:12:43;30.20;83.20
21559;DHT22;10940;48.890;8.240;2023-06-10T15:15:09;30.10;84.20
21559;DHT22;10940;48.890;8.240;2023-06-10T15:17:35;30.00;84.70
21559;DHT22;10940;48.890;8.240;2023-06-10T15:20:01;30.10;84.60
21559;DHT22;10940;48.890;8.240;2023-06-10T15:22:26;30.20;83.60
21559;DHT22;10940;48.890;8.240;2023-06-10T15:24:52;30.30;84.40
21559;DHT22;10940;48.890;8.240;2023-06-10T15:27:18;30.40;83.30
21559;DHT22;10940;48.890;8.240;2023-06-10T15:29:43;30.40;84.80
21559;DHT22;10940;48.890;8.240;2023-06-10T15:32:09;30.50;84.20
21559;DHT22;10940;48.890;8.240;2023-06-10T15:34:34;30.50;82.00
21559;DHT22;10940;48.890;8.240;2023-06-10T15:37:01;30.40;82.70
21559;DHT22;10940;48.890;8.240;2023-06-10T15:39:26;30.20;83.40